CW9197 Juva FI current weather conditions

sailwx.info

Wind from 049 at 4 knots gusting 9

Air temperature 7.8° C
Dewpoint 7.8° C

Last reported at 2016-May-26 23:50 UTC.
Time now 2016-May-27 00:17 UTC

Location: N 61°53' E 027°53'.
View on Google Maps.

See reports from other nearby stations

  
Tides and Currents Weather Stations Pressure Air Temp Water Temp Dewpoint Dewpoint Depression Visibility Wind Speed Wind Dir Waves Ship Positions
date/time (UTC)wind fromknots sea level pressurealtimeterstation pressurevisibilityair tempwater tempwave heightnotes
2016-May-26 23:50 049 4 gusting 9 7.8
2016-May-26 23:40 057 4 gusting 10 7.8
2016-May-26 23:30 054 3 gusting 6 7.8
2016-May-26 23:20 054 4 gusting 13 7.8
2016-May-26 23:10 054 3 gusting 7 7.8
2016-May-26 23:00 049 3 gusting 8 7.8
2016-May-26 22:50 057 2 gusting 7 7.8
2016-May-26 22:40 052 3 gusting 7 7.8
2016-May-26 22:30 045 2 gusting 7 7.8
2016-May-26 22:20 046 3 gusting 6 7.8
2016-May-26 22:10 042 4 gusting 8 7.8
2016-May-26 22:00 051 3 gusting 6 7.8
2016-May-26 21:50 051 2 gusting 6 7.8
2016-May-26 21:40 042 3 gusting 8 7.8
2016-May-26 21:30 046 3 gusting 8 7.8
2016-May-26 21:20 051 3 gusting 10 7.8
2016-May-26 21:10 047 2 gusting 6 7.8
2016-May-26 21:00 053 2 gusting 6 7.8
2016-May-26 20:50 057 3 gusting 7 7.8
2016-May-26 20:40 057 4 gusting 10 7.8
2016-May-26 20:30 052 3 gusting 9 7.8
2016-May-26 20:20 057 2 gusting 6 7.8
2016-May-26 20:10 058 4 gusting 8 7.8
2016-May-26 20:00 059 4 gusting 10 7.8
2016-May-26 19:50 047 4 gusting 8 8.3
2016-May-26 19:40 049 4 gusting 10 8.3
2016-May-26 19:30 055 5 gusting 12 8.3
2016-May-26 19:20 053 3 gusting 9 8.3
2016-May-26 19:10 049 4 gusting 9 8.3
2016-May-26 19:00 054 4 gusting 11 8.3
2016-May-26 18:50 060 3 gusting 9 8.9
2016-May-26 18:40 045 3 gusting 11 8.9
2016-May-26 18:30 039 5 gusting 16 8.9
2016-May-26 18:20 053 4 gusting 9 8.9
2016-May-26 18:10 042 3 gusting 12 8.9
2016-May-26 18:00 047 4 gusting 9 8.9
2016-May-26 17:50 051 4 gusting 10 8.9
2016-May-26 17:40 053 4 gusting 9 8.9
2016-May-26 17:30 051 6 gusting 9 9.4
2016-May-26 17:20 055 4 gusting 9 9.4
2016-May-26 17:10 053 4 gusting 8 9.4
2016-May-26 17:00 049 3 gusting 9 9.4
2016-May-26 16:50 048 4 gusting 11 9.4
2016-May-26 16:40 050 3 gusting 7 9.4
2016-May-26 16:30 046 4 gusting 10 9.4
2016-May-26 16:20 051 4 gusting 9 10.0
2016-May-26 16:10 050 5 gusting 12 10.0
2016-May-26 16:00 049 3 gusting 13 10.0
2016-May-26 15:50 046 3 gusting 6 10.0
2016-May-26 15:40 053 3 gusting 8 10.0
2016-May-26 15:30 053 3 gusting 12 10.0
2016-May-26 15:20 054 4 gusting 9 10.0
2016-May-26 15:10 047 4 gusting 9 10.0
2016-May-26 15:00 046 3 gusting 8 10.0
2016-May-26 14:50 050 4 gusting 11 10.6
2016-May-26 14:40 054 3 gusting 7 10.6
2016-May-26 14:30 059 4 gusting 10 10.6
2016-May-26 14:20 055 4 gusting 11 10.6
2016-May-26 14:10 052 4 gusting 8 10.6
2016-May-26 14:00 047 4 gusting 10 10.6
2016-May-26 13:50 059 4 gusting 9 10.6
2016-May-26 13:40 051 5 gusting 10 10.6
2016-May-26 13:30 047 4 gusting 9 10.6
2016-May-26 13:20 038 4 gusting 10 10.6
2016-May-26 13:10 032 3 gusting 8 10.6
2016-May-26 13:00 040 3 gusting 10 10.6
2016-May-26 12:50 038 4 gusting 12 10.6
2016-May-26 12:40 047 3 gusting 8 11.1
2016-May-26 12:30 057 3 gusting 8 11.1
2016-May-26 12:20 040 3 gusting 8 11.1
2016-May-26 12:10 049 2 gusting 9 11.1
2016-May-26 12:00 047 1 gusting 6 11.1
2016-May-26 11:50 050 1 gusting 7 11.1
2016-May-26 11:40 042 4 gusting 11 11.1
2016-May-26 11:30 054 4 gusting 10 11.1
2016-May-26 11:20 056 3 gusting 9 11.1
2016-May-26 11:10 049 5 gusting 10 11.1
2016-May-26 11:00 046 5 gusting 13 11.1
2016-May-26 10:50 052 4 gusting 10 11.1
2016-May-26 10:40 047 4 gusting 11 11.1
2016-May-26 10:30 049 4 gusting 10 11.1
2016-May-26 10:20 059 5 gusting 10 11.1
2016-May-26 10:10 052 4 gusting 11 11.1
2016-May-26 10:00 051 5 gusting 10 11.1
2016-May-26 09:50 053 4 gusting 8 11.1
2016-May-26 09:40 058 5 gusting 13 11.1
2016-May-26 09:30 062 4 gusting 9 11.1
2016-May-26 09:20 054 6 gusting 13 11.1
2016-May-26 09:10 062 5 gusting 13 11.1
2016-May-26 09:00 048 5 gusting 10 11.1
2016-May-26 08:50 049 3 gusting 8 11.1
2016-May-26 08:40 052 5 gusting 10 11.7
2016-May-26 08:30 058 3 gusting 8 11.7
2016-May-26 08:20 046 4 gusting 10 11.7
2016-May-26 08:10 040 3 gusting 8 11.7
2016-May-26 08:00 048 4 gusting 10 11.1
2016-May-26 07:50 060 5 gusting 10 11.1
2016-May-26 07:40 052 5 gusting 13 11.7
2016-May-26 07:30 057 4 gusting 8 11.7
2016-May-26 07:20 053 5 gusting 12 11.7
2016-May-26 07:10 056 2 gusting 8 11.7
2016-May-26 07:00 058 6 gusting 14 11.7
2016-May-26 06:50 054 5 gusting 14 11.7
2016-May-26 06:40 056 6 gusting 14 11.7
2016-May-26 06:30 055 4 gusting 12 12.2
2016-May-26 06:20 060 5 gusting 11 11.7
2016-May-26 06:10 053 6 gusting 17 12.2
2016-May-26 06:00 055 6 gusting 14 12.2
2016-May-26 05:50 048 5 gusting 12 12.2
2016-May-26 05:40 056 4 gusting 11 12.2
2016-May-26 05:30 059 5 gusting 14 12.2
2016-May-26 05:20 045 3 gusting 7 12.2
2016-May-26 05:10 047 3 gusting 9 12.8
2016-May-26 05:00 034 3 gusting 8 12.8
2016-May-26 04:50 043 3 gusting 10 12.8
2016-May-26 04:40 042 3 gusting 8 12.8
2016-May-26 04:30 041 3 gusting 10 12.8
2016-May-26 04:20 043 2 gusting 8 13.3
2016-May-26 04:10 039 3 gusting 8 13.3
2016-May-26 04:00 043 2 gusting 6 13.3
2016-May-26 03:50 047 4 gusting 11 13.9
2016-May-26 03:40 053 4 gusting 11 13.9
2016-May-26 03:30 048 4 gusting 13 13.9
2016-May-26 03:20 041 2 gusting 7 14.4
2016-May-26 03:10 051 1 gusting 7 14.4
2016-May-26 03:00 040 1 gusting 6 14.4
2016-May-26 02:50 041 1 gusting 6 14.4
2016-May-26 02:40 050 1 gusting 3 15.0
2016-May-26 02:30 028 1 gusting 3 14.4
2016-May-26 02:20 030 1 gusting 2 14.4
2016-May-26 02:10 032 0 gusting 3 14.4
2016-May-26 02:00 022 1 gusting 4 14.4
2016-May-26 01:50 050 0 gusting 1 14.4
2016-May-26 01:40 014 0 gusting 2 15.0
2016-May-26 01:30 017 0 gusting 1 15.0
2016-May-26 01:20 022 15.0
2016-May-26 01:10 015 15.0
2016-May-26 01:00 040 15.0
2016-May-26 00:50 049 15.6
2016-May-26 00:40 053 0 gusting 3 15.6
2016-May-26 00:30 056 0 gusting 3 15.6
2016-May-26 00:20 053 1 gusting 4 15.6
2016-May-26 00:10 050 1 gusting 5 15.6
2016-May-26 00:00 055 2 gusting 4 15.6
2016-May-25 23:50 050 1 gusting 4 15.6
2016-May-25 23:40 047 0 gusting 1 15.6
2016-May-25 23:30 050 0 gusting 3 15.6
2016-May-25 23:20 035 0 gusting 2 16.1
2016-May-25 23:10 093 0 gusting 3 16.1
2016-May-25 23:00 109 0 gusting 3 16.1
2016-May-25 22:50 090 2 gusting 6 16.1
2016-May-25 22:40 085 3 gusting 9 16.1
2016-May-25 22:30 093 3 gusting 8 16.7
2016-May-25 22:20 079 5 gusting 13 16.7
2016-May-25 22:10 065 3 gusting 6 16.7
2016-May-25 22:00 059 3 gusting 8 17.2
2016-May-25 21:50 054 3 gusting 8 17.2
2016-May-25 21:40 049 1 gusting 5 17.2
2016-May-25 21:30 040 2 gusting 7 17.2
2016-May-25 21:20 047 2 gusting 6 17.2
2016-May-25 21:10 046 2 gusting 5 17.8
2016-May-25 21:00 046 1 gusting 4 17.8
2016-May-25 20:50 037 1 gusting 4 17.8
2016-May-25 20:40 030 0 gusting 4 17.8
2016-May-25 20:30 020 1 gusting 6 18.3
2016-May-25 20:20 035 1 gusting 4 18.3
2016-May-25 20:10 044 2 gusting 6 18.3
2016-May-25 20:00 042 2 gusting 8 18.3
2016-May-25 19:50 040 3 gusting 6 18.9
2016-May-25 19:45 017 1 gusting 5 18.9
2016-May-25 19:35 054 1 gusting 4 18.9
2016-May-25 19:25 013 1 gusting 6 18.9
2016-May-25 19:15 040 3 gusting 4 19.4
2016-May-25 18:50 024 0 gusting 2 20.0
2016-May-25 18:40 038 1 gusting 3 20.6
2016-May-25 18:30 027 0 gusting 2 20.6
2016-May-25 18:20 057 0 gusting 3 21.1
2016-May-25 18:10 035 0 gusting 5 21.7
2016-May-25 18:00 049 0 gusting 5 21.7
2016-May-25 17:50 043 1 gusting 6 22.2
2016-May-25 17:40 024 2 gusting 8 22.2
2016-May-25 17:30 042 1 gusting 7 22.2
2016-May-25 17:20 009 0 gusting 4 22.2
2016-May-25 17:10 058 0 gusting 1 22.2
2016-May-25 17:00 062 0 gusting 1 22.2
2016-May-25 16:50 048 0 gusting 1 22.2
2016-May-25 16:40 053 22.2
2016-May-25 16:30 060 22.2
2016-May-25 16:20 048 0 gusting 2 22.2
2016-May-25 16:10 066 2 gusting 5 22.8
2016-May-25 16:00 069 2 gusting 6 22.8
2016-May-25 15:50 067 3 gusting 6 23.3
2016-May-25 15:40 062 2 gusting 6 23.9
2016-May-25 15:30 067 2 gusting 6 23.9
2016-May-25 15:20 099 0 gusting 3 23.9
2016-May-25 15:10 090 1 gusting 3 23.9
2016-May-25 15:00 062 3 gusting 8 23.9
2016-May-25 14:50 062 2 gusting 8 23.9
2016-May-25 14:40 069 0 gusting 4 23.9
2016-May-25 14:30 041 2 gusting 6 23.9
2016-May-25 14:20 051 1 gusting 4 23.3
2016-May-25 14:10 051 1 gusting 5 23.3
2016-May-25 14:00 066 2 gusting 6 23.9
2016-May-25 13:50 070 1 gusting 5 24.4
2016-May-25 13:40 062 3 gusting 6 23.9
2016-May-25 13:30 069 1 gusting 5 24.4
2016-May-25 13:20 039 3 gusting 8 24.4
2016-May-25 13:10 086 1 gusting 5 23.9
2016-May-25 13:00 063 2 gusting 6 23.9
2016-May-25 12:50 089 2 gusting 5 23.9
2016-May-25 12:40 077 1 gusting 5 23.9
2016-May-25 12:30 096 1 gusting 6 23.9
2016-May-25 12:20 088 2 gusting 9 23.3
2016-May-25 12:10 057 1 gusting 4 23.3
2016-May-25 12:00 060 2 gusting 5 23.3
2016-May-25 11:50 065 2 gusting 6 24.4
2016-May-25 11:40 034 1 gusting 5 25.0
2016-May-25 11:30 079 3 gusting 8 24.4
2016-May-25 11:20 052 1 gusting 3 23.9
2016-May-25 11:10 061 3 gusting 8 23.9
2016-May-25 11:00 052 3 gusting 10 23.9
2016-May-25 10:50 072 3 gusting 8 24.4
2016-May-25 10:40 072 2 gusting 9 25.0
2016-May-25 10:30 070 3 gusting 9 25.6
2016-May-25 10:20 048 1 gusting 6 24.4
2016-May-25 10:10 077 2 gusting 6 23.9
2016-May-25 10:00 061 0 gusting 2 23.9
2016-May-25 09:50 067 1 gusting 5 24.4
2016-May-25 09:40 102 1 gusting 6 25.6
2016-May-25 09:30 097 0 gusting 2 24.4
2016-May-25 09:20 116 1 gusting 4 25.0
2016-May-25 09:10 058 1 gusting 4 25.0
2016-May-25 09:00 102 2 gusting 6 26.1
2016-May-25 08:50 017 0 gusting 3 26.1
2016-May-25 08:40 081 0 gusting 4 25.0
2016-May-25 08:30 092 2 gusting 6 25.0
2016-May-25 08:20 091 2 gusting 5 25.6
2016-May-25 08:10 162 26.1
2016-May-25 08:00 079 0 gusting 3 26.1
2016-May-25 07:50 186 27.2
2016-May-25 07:40 197 26.7
2016-May-25 07:30 221 27.2
2016-May-25 07:20 216 0 gusting 1 27.2
2016-May-25 07:10 231 0 gusting 2 27.2
2016-May-25 07:00 222 0 gusting 3 27.2
2016-May-25 06:50 225 27.8
2016-May-25 06:40 202 27.8
2016-May-25 06:30 207 27.2
2016-May-25 06:20 225 26.7
2016-May-25 06:10 210 26.7
2016-May-25 06:00 26.1
2016-May-25 05:50 26.1
2016-May-25 05:40 25.0
2016-May-25 05:30 23.9
2016-May-25 05:20 23.9
2016-May-25 05:10 23.3
2016-May-25 05:00 23.3
2016-May-25 04:50 22.8
2016-May-25 04:40 22.2
2016-May-25 04:30 21.7
2016-May-25 04:20 21.1
2016-May-25 04:10 20.6
2016-May-25 04:00 20.0
2016-May-25 03:50 20.0
2016-May-25 03:40 18.9
2016-May-25 03:30 18.3
2016-May-25 03:20 17.2
2016-May-25 03:10 17.8
2016-May-25 03:00 17.2
2016-May-25 02:50 16.7
2016-May-25 02:40 16.1
2016-May-25 02:30 15.0
2016-May-25 02:20 13.9
2016-May-25 02:10 12.8
2016-May-25 02:00 11.7
2016-May-25 01:50 11.7
2016-May-25 01:40 11.7
2016-May-25 01:30 12.2
2016-May-25 01:20 12.2
2016-May-25 01:10 12.2
2016-May-25 01:00 12.2
2016-May-25 00:50 12.2
2016-May-25 00:40 12.2
2016-May-25 00:30 12.2
2016-May-25 00:20 12.8
2016-May-25 00:10 12.8
2016-May-25 00:00 13.3